sensor_id;sensor_type;location;lat;lon;timestamp;P1;durP1;ratioP1;P2;durP2;ratioP2
17127;SDS011;8679;50.842;4.322;2023-04-15T00:02:02;0.80;;;0.47;;
17127;SDS011;8679;50.842;4.322;2023-04-15T00:04:42;0.63;;;0.40;;
17127;SDS011;8679;50.842;4.322;2023-04-15T00:07:11;0.97;;;0.53;;
17127;SDS011;8679;50.842;4.322;2023-04-15T00:09:38;1.80;;;0.40;;
17127;SDS011;8679;50.842;4.322;2023-04-15T00:12:05;0.80;;;0.50;;
17127;SDS011;8679;50.842;4.322;2023-04-15T00:14:32;1.97;;;1.17;;
17127;SDS011;8679;50.842;4.322;2023-04-15T00:16:59;0.60;;;0.53;;
17127;SDS011;8679;50.842;4.322;2023-04-15T00:19:25;1.00;;;0.60;;
17127;SDS011;8679;50.842;4.322;2023-04-15T00:21:51;0.90;;;0.67;;
17127;SDS011;8679;50.842;4.322;2023-04-15T00:24:17;1.83;;;1.63;;
17127;SDS011;8679;50.842;4.322;2023-04-15T00:26:42;2.00;;;0.60;;
17127;SDS011;8679;50.842;4.322;2023-04-15T00:29:08;0.30;;;0.30;;
17127;SDS011;8679;50.842;4.322;2023-04-15T00:31:34;0.30;;;0.30;;
17127;SDS011;8679;50.842;4.322;2023-04-15T00:33:59;0.67;;;0.50;;
17127;SDS011;8679;50.842;4.322;2023-04-15T00:36:26;1.20;;;0.60;;
17127;SDS011;8679;50.842;4.322;2023-04-15T00:38:52;1.00;;;0.50;;
17127;SDS011;8679;50.842;4.322;2023-04-15T00:41:18;1.37;;;1.00;;
17127;SDS011;8679;50.842;4.322;2023-04-15T00:43:45;1.83;;;0.90;;
17127;SDS011;8679;50.842;4.322;2023-04-15T00:46:11;1.57;;;0.67;;
17127;SDS011;8679;50.842;4.322;2023-04-15T00:48:40;0.63;;;0.50;;
17127;SDS011;8679;50.842;4.322;2023-04-15T00:51:06;0.73;;;0.57;;
17127;SDS011;8679;50.842;4.322;2023-04-15T00:53:33;0.70;;;0.63;;
17127;SDS011;8679;50.842;4.322;2023-04-15T00:55:59;0.40;;;0.40;;
17127;SDS011;8679;50.842;4.322;2023-04-15T00:58:25;2.10;;;0.50;;
17127;SDS011;8679;50.842;4.322;2023-04-15T01:00:52;0.93;;;0.40;;
17127;SDS011;8679;50.842;4.322;2023-04-15T01:03:19;0.40;;;0.40;;
17127;SDS011;8679;50.842;4.322;2023-04-15T01:05:45;1.10;;;0.57;;
17127;SDS011;8679;50.842;4.322;2023-04-15T01:08:11;0.30;;;0.30;;
17127;SDS011;8679;50.842;4.322;2023-04-15T01:10:37;0.30;;;0.30;;
17127;SDS011;8679;50.842;4.322;2023-04-15T01:13:03;0.50;;;0.40;;
17127;SDS011;8679;50.842;4.322;2023-04-15T01:15:29;0.60;;;0.60;;
17127;SDS011;8679;50.842;4.322;2023-04-15T01:17:56;1.03;;;0.70;;
17127;SDS011;8679;50.842;4.322;2023-04-15T01:20:23;0.60;;;0.47;;
17127;SDS011;8679;50.842;4.322;2023-04-15T01:22:49;0.43;;;0.43;;
17127;SDS011;8679;50.842;4.322;2023-04-15T01:25:16;0.73;;;0.53;;
17127;SDS011;8679;50.842;4.322;2023-04-15T01:27:44;0.53;;;0.40;;
17127;SDS011;8679;50.842;4.322;2023-04-15T01:30:10;0.30;;;0.30;;
17127;SDS011;8679;50.842;4.322;2023-04-15T01:32:36;0.30;;;0.30;;
17127;SDS011;8679;50.842;4.322;2023-04-15T01:35:02;1.37;;;0.57;;
17127;SDS011;8679;50.842;4.322;2023-04-15T01:37:28;0.70;;;0.30;;
17127;SDS011;8679;50.842;4.322;2023-04-15T01:39:54;0.90;;;0.47;;
17127;SDS011;8679;50.842;4.322;2023-04-15T01:42:21;0.50;;;0.50;;
17127;SDS011;8679;50.842;4.322;2023-04-15T01:44:46;0.53;;;0.47;;
17127;SDS011;8679;50.842;4.322;2023-04-15T01:47:12;1.47;;;0.47;;
17127;SDS011;8679;50.842;4.322;2023-04-15T01:49:38;1.43;;;0.47;;
17127;SDS011;8679;50.842;4.322;2023-04-15T01:52:04;1.03;;;0.63;;
17127;SDS011;8679;50.842;4.322;2023-04-15T01:54:29;0.50;;;0.40;;
17127;SDS011;8679;50.842;4.322;2023-04-15T01:56:55;0.37;;;0.37;;
17127;SDS011;8679;50.842;4.322;2023-04-15T01:59:21;0.40;;;0.33;;
17127;SDS011;8679;50.842;4.322;2023-04-15T02:01:47;0.93;;;0.57;;
17127;SDS011;8679;50.842;4.322;2023-04-15T02:04:13;0.20;;;0.20;;
17127;SDS011;8679;50.842;4.322;2023-04-15T02:06:41;0.63;;;0.63;;
17127;SDS011;8679;50.842;4.322;2023-04-15T02:09:08;0.30;;;0.23;;
17127;SDS011;8679;50.842;4.322;2023-04-15T02:11:34;0.37;;;0.30;;
17127;SDS011;8679;50.842;4.322;2023-04-15T02:14:01;0.60;;;0.60;;
17127;SDS011;8679;50.842;4.322;2023-04-15T02:16:28;0.40;;;0.30;;
17127;SDS011;8679;50.842;4.322;2023-04-15T02:18:54;2.20;;;0.60;;
17127;SDS011;8679;50.842;4.322;2023-04-15T02:21:20;0.70;;;0.60;;
17127;SDS011;8679;50.842;4.322;2023-04-15T02:23:46;0.63;;;0.50;;
17127;SDS011;8679;50.842;4.322;2023-04-15T02:26:12;0.70;;;0.70;;
17127;SDS011;8679;50.842;4.322;2023-04-15T02:28:38;0.70;;;0.30;;
17127;SDS011;8679;50.842;4.322;2023-04-15T02:31:04;0.50;;;0.50;;
17127;SDS011;8679;50.842;4.322;2023-04-15T02:33:31;2.00;;;0.83;;
17127;SDS011;8679;50.842;4.322;2023-04-15T02:35:57;0.30;;;0.30;;
17127;SDS011;8679;50.842;4.322;2023-04-15T02:38:23;0.50;;;0.50;;
17127;SDS011;8679;50.842;4.322;2023-04-15T02:40:49;0.37;;;0.37;;
17127;SDS011;8679;50.842;4.322;2023-04-15T02:43:15;0.30;;;0.30;;
17127;SDS011;8679;50.842;4.322;2023-04-15T02:45:41;0.30;;;0.30;;
17127;SDS011;8679;50.842;4.322;2023-04-15T02:48:07;0.30;;;0.30;;
17127;SDS011;8679;50.842;4.322;2023-04-15T02:50:33;1.13;;;0.53;;
17127;SDS011;8679;50.842;4.322;2023-04-15T02:52:59;0.47;;;0.47;;
17127;SDS011;8679;50.842;4.322;2023-04-15T02:55:26;0.70;;;0.40;;
17127;SDS011;8679;50.842;4.322;2023-04-15T02:57:52;0.20;;;0.20;;
17127;SDS011;8679;50.842;4.322;2023-04-15T03:00:18;0.20;;;0.20;;
17127;SDS011;8679;50.842;4.322;2023-04-15T03:02:44;0.37;;;0.37;;
17127;SDS011;8679;50.842;4.322;2023-04-15T03:05:11;0.47;;;0.47;;
17127;SDS011;8679;50.842;4.322;2023-04-15T03:07:38;1.70;;;0.67;;
17127;SDS011;8679;50.842;4.322;2023-04-15T03:10:06;1.13;;;0.90;;
17127;SDS011;8679;50.842;4.322;2023-04-15T03:12:32;0.60;;;0.60;;
17127;SDS011;8679;50.842;4.322;2023-04-15T03:14:58;1.00;;;0.97;;
17127;SDS011;8679;50.842;4.322;2023-04-15T03:17:26;1.27;;;0.83;;
17127;SDS011;8679;50.842;4.322;2023-04-15T03:19:51;1.20;;;0.93;;
17127;SDS011;8679;50.842;4.322;2023-04-15T03:22:17;1.20;;;0.80;;
17127;SDS011;8679;50.842;4.322;2023-04-15T03:24:42;2.23;;;1.30;;
17127;SDS011;8679;50.842;4.322;2023-04-15T03:27:08;1.97;;;1.20;;
17127;SDS011;8679;50.842;4.322;2023-04-15T03:29:34;2.57;;;1.53;;
17127;SDS011;8679;50.842;4.322;2023-04-15T03:31:59;1.43;;;0.80;;
17127;SDS011;8679;50.842;4.322;2023-04-15T03:34:25;0.70;;;0.70;;
17127;SDS011;8679;50.842;4.322;2023-04-15T03:36:51;2.00;;;1.30;;
17127;SDS011;8679;50.842;4.322;2023-04-15T03:39:17;1.70;;;1.10;;
17127;SDS011;8679;50.842;4.322;2023-04-15T03:41:42;1.03;;;0.67;;
17127;SDS011;8679;50.842;4.322;2023-04-15T03:44:08;2.30;;;1.07;;
17127;SDS011;8679;50.842;4.322;2023-04-15T03:46:34;2.90;;;0.87;;
17127;SDS011;8679;50.842;4.322;2023-04-15T03:48:59;1.57;;;1.30;;
17127;SDS011;8679;50.842;4.322;2023-04-15T03:51:26;1.93;;;1.33;;
17127;SDS011;8679;50.842;4.322;2023-04-15T03:53:51;1.43;;;1.23;;
17127;SDS011;8679;50.842;4.322;2023-04-15T03:56:17;4.20;;;1.40;;
17127;SDS011;8679;50.842;4.322;2023-04-15T03:58:42;1.37;;;1.20;;
17127;SDS011;8679;50.842;4.322;2023-04-15T04:01:08;1.30;;;1.13;;
17127;SDS011;8679;50.842;4.322;2023-04-15T04:03:34;2.07;;;1.40;;
17127;SDS011;8679;50.842;4.322;2023-04-15T04:06:01;2.47;;;1.23;;
17127;SDS011;8679;50.842;4.322;2023-04-15T04:08:26;1.17;;;1.10;;
17127;SDS011;8679;50.842;4.322;2023-04-15T04:10:52;1.67;;;0.90;;
17127;SDS011;8679;50.842;4.322;2023-04-15T04:13:18;1.93;;;1.07;;
17127;SDS011;8679;50.842;4.322;2023-04-15T04:15:43;3.50;;;1.50;;
17127;SDS011;8679;50.842;4.322;2023-04-15T04:18:09;1.20;;;1.10;;
17127;SDS011;8679;50.842;4.322;2023-04-15T04:20:35;1.10;;;0.83;;
17127;SDS011;8679;50.842;4.322;2023-04-15T04:23:01;4.20;;;1.77;;
17127;SDS011;8679;50.842;4.322;2023-04-15T04:25:26;3.03;;;1.83;;
17127;SDS011;8679;50.842;4.322;2023-04-15T04:27:52;2.70;;;1.03;;
17127;SDS011;8679;50.842;4.322;2023-04-15T04:30:17;0.63;;;0.63;;
17127;SDS011;8679;50.842;4.322;2023-04-15T04:32:43;1.27;;;0.93;;
17127;SDS011;8679;50.842;4.322;2023-04-15T04:35:10;1.53;;;1.20;;
17127;SDS011;8679;50.842;4.322;2023-04-15T04:37:36;1.30;;;1.07;;
17127;SDS011;8679;50.842;4.322;2023-04-15T04:40:01;1.27;;;1.13;;
17127;SDS011;8679;50.842;4.322;2023-04-15T04:42:27;1.60;;;1.47;;
17127;SDS011;8679;50.842;4.322;2023-04-15T04:44:53;1.60;;;1.50;;
17127;SDS011;8679;50.842;4.322;2023-04-15T04:47:19;1.80;;;1.50;;
17127;SDS011;8679;50.842;4.322;2023-04-15T04:49:44;1.37;;;1.00;;
17127;SDS011;8679;50.842;4.322;2023-04-15T04:52:10;1.50;;;1.03;;
17127;SDS011;8679;50.842;4.322;2023-04-15T04:54:36;6.53;;;1.30;;
17127;SDS011;8679;50.842;4.322;2023-04-15T04:57:01;0.90;;;0.80;;
17127;SDS011;8679;50.842;4.322;2023-04-15T04:59:27;2.17;;;1.47;;
17127;SDS011;8679;50.842;4.322;2023-04-15T05:01:53;2.13;;;1.23;;
17127;SDS011;8679;50.842;4.322;2023-04-15T05:04:18;1.50;;;1.10;;
17127;SDS011;8679;50.842;4.322;2023-04-15T05:06:44;1.13;;;1.03;;
17127;SDS011;8679;50.842;4.322;2023-04-15T05:09:10;0.90;;;0.77;;
17127;SDS011;8679;50.842;4.322;2023-04-15T05:11:36;0.90;;;0.90;;
17127;SDS011;8679;50.842;4.322;2023-04-15T05:14:01;1.07;;;0.63;;
17127;SDS011;8679;50.842;4.322;2023-04-15T05:16:27;0.87;;;0.83;;
17127;SDS011;8679;50.842;4.322;2023-04-15T05:18:53;0.57;;;0.57;;
17127;SDS011;8679;50.842;4.322;2023-04-15T05:21:19;1.07;;;0.97;;
17127;SDS011;8679;50.842;4.322;2023-04-15T05:23:45;3.90;;;1.00;;
17127;SDS011;8679;50.842;4.322;2023-04-15T05:26:11;1.90;;;0.80;;
17127;SDS011;8679;50.842;4.322;2023-04-15T05:28:36;0.67;;;0.63;;
17127;SDS011;8679;50.842;4.322;2023-04-15T05:31:02;1.63;;;1.47;;
17127;SDS011;8679;50.842;4.322;2023-04-15T05:33:28;1.73;;;1.53;;
17127;SDS011;8679;50.842;4.322;2023-04-15T05:35:54;2.00;;;1.07;;
17127;SDS011;8679;50.842;4.322;2023-04-15T05:38:19;0.90;;;0.67;;
17127;SDS011;8679;50.842;4.322;2023-04-15T05:40:45;0.97;;;0.63;;
17127;SDS011;8679;50.842;4.322;2023-04-15T05:43:11;0.73;;;0.70;;
17127;SDS011;8679;50.842;4.322;2023-04-15T05:45:36;0.80;;;0.80;;
17127;SDS011;8679;50.842;4.322;2023-04-15T05:48:02;0.70;;;0.70;;
17127;SDS011;8679;50.842;4.322;2023-04-15T05:50:28;1.80;;;0.80;;
17127;SDS011;8679;50.842;4.322;2023-04-15T05:52:54;2.67;;;0.83;;
17127;SDS011;8679;50.842;4.322;2023-04-15T05:55:20;1.13;;;0.70;;
17127;SDS011;8679;50.842;4.322;2023-04-15T05:57:46;1.47;;;0.90;;
17127;SDS011;8679;50.842;4.322;2023-04-15T06:00:12;1.63;;;1.20;;
17127;SDS011;8679;50.842;4.322;2023-04-15T06:02:38;1.33;;;1.03;;
17127;SDS011;8679;50.842;4.322;2023-04-15T06:05:04;1.07;;;0.90;;
17127;SDS011;8679;50.842;4.322;2023-04-15T06:07:34;1.23;;;1.13;;
17127;SDS011;8679;50.842;4.322;2023-04-15T06:10:01;3.47;;;2.20;;
17127;SDS011;8679;50.842;4.322;2023-04-15T06:12:27;0.90;;;0.80;;
17127;SDS011;8679;50.842;4.322;2023-04-15T06:14:53;1.43;;;0.97;;
17127;SDS011;8679;50.842;4.322;2023-04-15T06:17:18;1.27;;;1.17;;
17127;SDS011;8679;50.842;4.322;2023-04-15T06:19:44;2.10;;;1.63;;
17127;SDS011;8679;50.842;4.322;2023-04-15T06:22:10;2.00;;;0.97;;
17127;SDS011;8679;50.842;4.322;2023-04-15T06:24:36;2.67;;;1.23;;
17127;SDS011;8679;50.842;4.322;2023-04-15T06:27:01;2.80;;;1.40;;
17127;SDS011;8679;50.842;4.322;2023-04-15T06:29:27;1.10;;;0.90;;
17127;SDS011;8679;50.842;4.322;2023-04-15T06:31:53;1.10;;;1.00;;
17127;SDS011;8679;50.842;4.322;2023-04-15T06:34:20;1.40;;;1.30;;
17127;SDS011;8679;50.842;4.322;2023-04-15T06:36:46;1.07;;;0.97;;
17127;SDS011;8679;50.842;4.322;2023-04-15T06:39:12;0.80;;;0.80;;
17127;SDS011;8679;50.842;4.322;2023-04-15T06:41:37;1.27;;;0.80;;
17127;SDS011;8679;50.842;4.322;2023-04-15T06:44:03;2.70;;;0.97;;
17127;SDS011;8679;50.842;4.322;2023-04-15T06:46:29;1.27;;;1.17;;
17127;SDS011;8679;50.842;4.322;2023-04-15T06:48:55;3.17;;;1.27;;
17127;SDS011;8679;50.842;4.322;2023-04-15T06:51:21;0.80;;;0.70;;
17127;SDS011;8679;50.842;4.322;2023-04-15T06:53:48;1.90;;;0.97;;
17127;SDS011;8679;50.842;4.322;2023-04-15T06:56:13;2.17;;;1.90;;
17127;SDS011;8679;50.842;4.322;2023-04-15T06:58:39;1.43;;;1.17;;
17127;SDS011;8679;50.842;4.322;2023-04-15T07:01:05;1.30;;;1.20;;
17127;SDS011;8679;50.842;4.322;2023-04-15T07:03:31;1.20;;;0.93;;
17127;SDS011;8679;50.842;4.322;2023-04-15T07:05:56;1.07;;;0.80;;
17127;SDS011;8679;50.842;4.322;2023-04-15T07:08:22;0.80;;;0.80;;
17127;SDS011;8679;50.842;4.322;2023-04-15T07:10:48;3.73;;;1.07;;
17127;SDS011;8679;50.842;4.322;2023-04-15T07:13:14;1.20;;;1.10;;
17127;SDS011;8679;50.842;4.322;2023-04-15T07:15:40;1.63;;;1.30;;
17127;SDS011;8679;50.842;4.322;2023-04-15T07:18:05;1.50;;;0.90;;
17127;SDS011;8679;50.842;4.322;2023-04-15T07:20:31;1.73;;;0.90;;
17127;SDS011;8679;50.842;4.322;2023-04-15T07:22:57;1.90;;;1.30;;
17127;SDS011;8679;50.842;4.322;2023-04-15T07:25:23;1.13;;;1.03;;
17127;SDS011;8679;50.842;4.322;2023-04-15T07:27:48;1.73;;;1.23;;
17127;SDS011;8679;50.842;4.322;2023-04-15T07:30:14;1.90;;;1.07;;
17127;SDS011;8679;50.842;4.322;2023-04-15T07:32:40;1.13;;;0.90;;
17127;SDS011;8679;50.842;4.322;2023-04-15T07:35:07;1.20;;;1.10;;
17127;SDS011;8679;50.842;4.322;2023-04-15T07:37:33;1.20;;;1.10;;
17127;SDS011;8679;50.842;4.322;2023-04-15T07:39:59;0.93;;;0.90;;
17127;SDS011;8679;50.842;4.322;2023-04-15T07:42:25;1.20;;;1.10;;
17127;SDS011;8679;50.842;4.322;2023-04-15T07:44:51;0.97;;;0.97;;
17127;SDS011;8679;50.842;4.322;2023-04-15T07:47:16;1.87;;;1.10;;
17127;SDS011;8679;50.842;4.322;2023-04-15T07:49:42;3.43;;;1.70;;
17127;SDS011;8679;50.842;4.322;2023-04-15T07:52:08;1.67;;;0.93;;
17127;SDS011;8679;50.842;4.322;2023-04-15T07:54:34;1.80;;;1.10;;
17127;SDS011;8679;50.842;4.322;2023-04-15T07:56:59;2.90;;;1.83;;
17127;SDS011;8679;50.842;4.322;2023-04-15T07:59:25;2.67;;;1.33;;
17127;SDS011;8679;50.842;4.322;2023-04-15T08:01:53;4.30;;;1.20;;
17127;SDS011;8679;50.842;4.322;2023-04-15T08:04:19;1.77;;;1.27;;
17127;SDS011;8679;50.842;4.322;2023-04-15T08:06:45;2.00;;;1.53;;
17127;SDS011;8679;50.842;4.322;2023-04-15T08:09:12;2.20;;;1.47;;
17127;SDS011;8679;50.842;4.322;2023-04-15T08:11:38;4.50;;;1.73;;
17127;SDS011;8679;50.842;4.322;2023-04-15T08:14:03;2.50;;;1.70;;
17127;SDS011;8679;50.842;4.322;2023-04-15T08:16:29;1.77;;;1.67;;
17127;SDS011;8679;50.842;4.322;2023-04-15T08:18:56;2.00;;;1.43;;
17127;SDS011;8679;50.842;4.322;2023-04-15T08:21:22;1.53;;;1.07;;
17127;SDS011;8679;50.842;4.322;2023-04-15T08:23:49;3.60;;;2.20;;
17127;SDS011;8679;50.842;4.322;2023-04-15T08:26:17;1.97;;;1.53;;
17127;SDS011;8679;50.842;4.322;2023-04-15T08:28:45;2.10;;;1.60;;
17127;SDS011;8679;50.842;4.322;2023-04-15T08:31:12;4.23;;;2.03;;
17127;SDS011;8679;50.842;4.322;2023-04-15T08:33:38;2.30;;;1.77;;
17127;SDS011;8679;50.842;4.322;2023-04-15T08:36:04;1.47;;;1.23;;
17127;SDS011;8679;50.842;4.322;2023-04-15T08:38:31;1.60;;;1.47;;
17127;SDS011;8679;50.842;4.322;2023-04-15T08:40:57;2.37;;;1.77;;
17127;SDS011;8679;50.842;4.322;2023-04-15T08:43:27;2.67;;;1.43;;
17127;SDS011;8679;50.842;4.322;2023-04-15T08:45:57;1.33;;;1.00;;
17127;SDS011;8679;50.842;4.322;2023-04-15T08:48:27;2.63;;;1.50;;
17127;SDS011;8679;50.842;4.322;2023-04-15T08:50:55;2.00;;;1.47;;
17127;SDS011;8679;50.842;4.322;2023-04-15T08:53:21;2.07;;;1.00;;
17127;SDS011;8679;50.842;4.322;2023-04-15T08:55:50;2.63;;;2.13;;
17127;SDS011;8679;50.842;4.322;2023-04-15T08:58:16;2.83;;;2.00;;
17127;SDS011;8679;50.842;4.322;2023-04-15T09:00:43;4.13;;;2.30;;
17127;SDS011;8679;50.842;4.322;2023-04-15T09:03:10;4.03;;;2.30;;
17127;SDS011;8679;50.842;4.322;2023-04-15T09:05:36;2.17;;;1.97;;
17127;SDS011;8679;50.842;4.322;2023-04-15T09:08:02;3.40;;;1.57;;
17127;SDS011;8679;50.842;4.322;2023-04-15T09:10:29;4.47;;;1.90;;
17127;SDS011;8679;50.842;4.322;2023-04-15T09:12:55;3.00;;;2.60;;
17127;SDS011;8679;50.842;4.322;2023-04-15T09:15:24;3.50;;;1.50;;
17127;SDS011;8679;50.842;4.322;2023-04-15T09:17:51;2.90;;;1.73;;
17127;SDS011;8679;50.842;4.322;2023-04-15T09:20:17;3.03;;;1.40;;
17127;SDS011;8679;50.842;4.322;2023-04-15T09:22:44;2.93;;;1.17;;
17127;SDS011;8679;50.842;4.322;2023-04-15T09:27:47;2.83;;;1.83;;
17127;SDS011;8679;50.842;4.322;2023-04-15T09:30:13;2.80;;;1.90;;
17127;SDS011;8679;50.842;4.322;2023-04-15T09:33:13;2.67;;;1.40;;
17127;SDS011;8679;50.842;4.322;2023-04-15T09:35:33;3.30;;;2.57;;
17127;SDS011;8679;50.842;4.322;2023-04-15T09:38:06;3.67;;;1.40;;
17127;SDS011;8679;50.842;4.322;2023-04-15T09:40:36;1.55;;;0.93;;
17127;SDS011;8679;50.842;4.322;2023-04-15T09:43:04;2.03;;;0.77;;
17127;SDS011;8679;50.842;4.322;2023-04-15T09:45:31;1.48;;;1.05;;
17127;SDS011;8679;50.842;4.322;2023-04-15T09:47:58;1.75;;;0.98;;
17127;SDS011;8679;50.842;4.322;2023-04-15T09:50:27;1.13;;;1.00;;
17127;SDS011;8679;50.842;4.322;2023-04-15T09:52:53;1.90;;;1.35;;
17127;SDS011;8679;50.842;4.322;2023-04-15T09:55:19;0.75;;;0.60;;
17127;SDS011;8679;50.842;4.322;2023-04-15T09:57:45;2.78;;;1.10;;
17127;SDS011;8679;50.842;4.322;2023-04-15T10:00:11;1.05;;;0.77;;
17127;SDS011;8679;50.842;4.322;2023-04-15T10:02:38;1.10;;;0.88;;
17127;SDS011;8679;50.842;4.322;2023-04-15T10:05:06;3.40;;;1.00;;
17127;SDS011;8679;50.842;4.322;2023-04-15T10:07:37;1.20;;;0.82;;
17127;SDS011;8679;50.842;4.322;2023-04-15T10:10:05;1.02;;;0.88;;
17127;SDS011;8679;50.842;4.322;2023-04-15T10:12:31;1.50;;;0.90;;
17127;SDS011;8679;50.842;4.322;2023-04-15T10:14:59;1.38;;;0.82;;
17127;SDS011;8679;50.842;4.322;2023-04-15T10:17:29;3.27;;;1.50;;
17127;SDS011;8679;50.842;4.322;2023-04-15T10:20:00;1.00;;;0.80;;
17127;SDS011;8679;50.842;4.322;2023-04-15T10:22:27;2.33;;;1.33;;
17127;SDS011;8679;50.842;4.322;2023-04-15T10:24:54;3.38;;;1.25;;
17127;SDS011;8679;50.842;4.322;2023-04-15T10:27:21;1.55;;;1.05;;
17127;SDS011;8679;50.842;4.322;2023-04-15T10:29:53;1.80;;;1.37;;
17127;SDS011;8679;50.842;4.322;2023-04-15T10:32:20;1.20;;;0.82;;
17127;SDS011;8679;50.842;4.322;2023-04-15T10:34:49;1.48;;;1.05;;
17127;SDS011;8679;50.842;4.322;2023-04-15T10:37:49;1.58;;;0.82;;
17127;SDS011;8679;50.842;4.322;2023-04-15T10:42:55;0.93;;;0.63;;
17127;SDS011;8679;50.842;4.322;2023-04-15T10:45:26;3.80;;;1.90;;
17127;SDS011;8679;50.842;4.322;2023-04-15T10:48:00;0.75;;;0.68;;
17127;SDS011;8679;50.842;4.322;2023-04-15T10:50:27;1.90;;;0.60;;
17127;SDS011;8679;50.842;4.322;2023-04-15T10:52:55;1.08;;;0.60;;
17127;SDS011;8679;50.842;4.322;2023-04-15T10:55:25;0.85;;;0.80;;
17127;SDS011;8679;50.842;4.322;2023-04-15T10:57:59;1.23;;;0.85;;
17127;SDS011;8679;50.842;4.322;2023-04-15T11:00:30;0.63;;;0.45;;
17127;SDS011;8679;50.842;4.322;2023-04-15T11:02:58;0.73;;;0.43;;
17127;SDS011;8679;50.842;4.322;2023-04-15T11:08:14;0.98;;;0.75;;
17127;SDS011;8679;50.842;4.322;2023-04-15T11:18:15;0.80;;;0.80;;
17127;SDS011;8679;50.842;4.322;2023-04-15T11:20:49;1.00;;;0.60;;
17127;SDS011;8679;50.842;4.322;2023-04-15T11:23:17;1.17;;;0.98;;
17127;SDS011;8679;50.842;4.322;2023-04-15T11:25:44;0.63;;;0.47;;
17127;SDS011;8679;50.842;4.322;2023-04-15T11:28:10;0.73;;;0.65;;
17127;SDS011;8679;50.842;4.322;2023-04-15T11:30:36;1.13;;;0.93;;
17127;SDS011;8679;50.842;4.322;2023-04-15T11:33:04;1.20;;;0.65;;
17127;SDS011;8679;50.842;4.322;2023-04-15T11:35:31;1.20;;;0.80;;
17127;SDS011;8679;50.842;4.322;2023-04-15T11:37:57;3.10;;;1.20;;
17127;SDS011;8679;50.842;4.322;2023-04-15T11:40:23;0.60;;;0.60;;
17127;SDS011;8679;50.842;4.322;2023-04-15T11:45:49;0.95;;;0.57;;
17127;SDS011;8679;50.842;4.322;2023-04-15T11:48:21;0.43;;;0.32;;
17127;SDS011;8679;50.842;4.322;2023-04-15T11:51:00;0.50;;;0.50;;
17127;SDS011;8679;50.842;4.322;2023-04-15T11:56:08;1.15;;;0.43;;
17127;SDS011;8679;50.842;4.322;2023-04-15T11:58:36;0.88;;;0.77;;
17127;SDS011;8679;50.842;4.322;2023-04-15T12:01:02;0.38;;;0.38;;
17127;SDS011;8679;50.842;4.322;2023-04-15T12:03:42;0.93;;;0.30;;
17127;SDS011;8679;50.842;4.322;2023-04-15T12:06:13;1.10;;;0.35;;
17127;SDS011;8679;50.842;4.322;2023-04-15T12:19:26;0.50;;;0.50;;
17127;SDS011;8679;50.842;4.322;2023-04-15T12:22:00;2.30;;;0.68;;
17127;SDS011;8679;50.842;4.322;2023-04-15T12:24:29;1.00;;;0.65;;
17127;SDS011;8679;50.842;4.322;2023-04-15T12:26:58;0.80;;;0.50;;
17127;SDS011;8679;50.842;4.322;2023-04-15T12:29:45;1.48;;;0.73;;
17127;SDS011;8679;50.842;4.322;2023-04-15T12:32:12;0.85;;;0.65;;
17127;SDS011;8679;50.842;4.322;2023-04-15T12:34:40;0.82;;;0.60;;
17127;SDS011;8679;50.842;4.322;2023-04-15T12:37:09;1.38;;;0.57;;
17127;SDS011;8679;50.842;4.322;2023-04-15T12:39:37;1.02;;;0.65;;
17127;SDS011;8679;50.842;4.322;2023-04-15T12:42:05;1.67;;;0.80;;
17127;SDS011;8679;50.842;4.322;2023-04-15T12:44:31;0.73;;;0.70;;
17127;SDS011;8679;50.842;4.322;2023-04-15T12:46:58;0.47;;;0.38;;
17127;SDS011;8679;50.842;4.322;2023-04-15T12:49:24;0.82;;;0.60;;
17127;SDS011;8679;50.842;4.322;2023-04-15T12:51:51;0.45;;;0.45;;
17127;SDS011;8679;50.842;4.322;2023-04-15T12:54:19;0.82;;;0.60;;
17127;SDS011;8679;50.842;4.322;2023-04-15T12:56:45;0.45;;;0.40;;
17127;SDS011;8679;50.842;4.322;2023-04-15T12:59:12;0.60;;;0.50;;
17127;SDS011;8679;50.842;4.322;2023-04-15T13:01:39;0.80;;;0.50;;
17127;SDS011;8679;50.842;4.322;2023-04-15T13:04:05;0.45;;;0.40;;
17127;SDS011;8679;50.842;4.322;2023-04-15T13:06:31;0.20;;;0.20;;
17127;SDS011;8679;50.842;4.322;2023-04-15T13:08:59;0.80;;;0.50;;
17127;SDS011;8679;50.842;4.322;2023-04-15T13:11:26;0.30;;;0.30;;
17127;SDS011;8679;50.842;4.322;2023-04-15T13:13:54;0.30;;;0.30;;
17127;SDS011;8679;50.842;4.322;2023-04-15T13:16:21;0.80;;;0.45;;
17127;SDS011;8679;50.842;4.322;2023-04-15T13:18:47;2.05;;;0.50;;
17127;SDS011;8679;50.842;4.322;2023-04-15T13:21:13;0.70;;;0.55;;
17127;SDS011;8679;50.842;4.322;2023-04-15T13:23:42;3.35;;;0.70;;
17127;SDS011;8679;50.842;4.322;2023-04-15T13:26:08;1.05;;;0.75;;
17127;SDS011;8679;50.842;4.322;2023-04-15T13:28:33;1.17;;;0.98;;
17127;SDS011;8679;50.842;4.322;2023-04-15T13:31:00;1.50;;;0.88;;
17127;SDS011;8679;50.842;4.322;2023-04-15T13:33:26;1.38;;;1.05;;
17127;SDS011;8679;50.842;4.322;2023-04-15T13:35:52;2.28;;;1.40;;
17127;SDS011;8679;50.842;4.322;2023-04-15T13:38:18;2.70;;;1.30;;
17127;SDS011;8679;50.842;4.322;2023-04-15T13:40:44;0.65;;;0.45;;
17127;SDS011;8679;50.842;4.322;2023-04-15T13:43:09;0.90;;;0.75;;
17127;SDS011;8679;50.842;4.322;2023-04-15T13:45:36;2.70;;;1.10;;
17127;SDS011;8679;50.842;4.322;2023-04-15T13:48:02;1.17;;;0.65;;
17127;SDS011;8679;50.842;4.322;2023-04-15T13:50:28;0.93;;;0.65;;
17127;SDS011;8679;50.842;4.322;2023-04-15T13:52:54;0.40;;;0.40;;
17127;SDS011;8679;50.842;4.322;2023-04-15T13:55:20;3.22;;;1.27;;
17127;SDS011;8679;50.842;4.322;2023-04-15T13:57:45;0.70;;;0.50;;
17127;SDS011;8679;50.842;4.322;2023-04-15T14:00:11;0.68;;;0.50;;
17127;SDS011;8679;50.842;4.322;2023-04-15T14:02:38;0.77;;;0.40;;
17127;SDS011;8679;50.842;4.322;2023-04-15T14:05:05;2.40;;;0.50;;
17127;SDS011;8679;50.842;4.322;2023-04-15T14:07:31;1.05;;;0.65;;
17127;SDS011;8679;50.842;4.322;2023-04-15T14:09:56;1.00;;;0.63;;
17127;SDS011;8679;50.842;4.322;2023-04-15T14:12:22;0.75;;;0.43;;
17127;SDS011;8679;50.842;4.322;2023-04-15T14:14:48;1.38;;;0.55;;
17127;SDS011;8679;50.842;4.322;2023-04-15T14:17:13;0.80;;;0.60;;
17127;SDS011;8679;50.842;4.322;2023-04-15T14:19:39;0.45;;;0.43;;
17127;SDS011;8679;50.842;4.322;2023-04-15T14:22:05;0.98;;;0.52;;
17127;SDS011;8679;50.842;4.322;2023-04-15T14:24:31;1.80;;;0.70;;
17127;SDS011;8679;50.842;4.322;2023-04-15T14:26:57;0.85;;;0.50;;
17127;SDS011;8679;50.842;4.322;2023-04-15T14:29:24;1.85;;;0.60;;
17127;SDS011;8679;50.842;4.322;2023-04-15T14:31:50;0.80;;;0.60;;
17127;SDS011;8679;50.842;4.322;2023-04-15T14:34:16;0.43;;;0.30;;
17127;SDS011;8679;50.842;4.322;2023-04-15T14:36:42;0.40;;;0.28;;
17127;SDS011;8679;50.842;4.322;2023-04-15T14:39:08;1.65;;;0.82;;
17127;SDS011;8679;50.842;4.322;2023-04-15T14:41:34;0.50;;;0.50;;
17127;SDS011;8679;50.842;4.322;2023-04-15T14:44:00;0.63;;;0.60;;
17127;SDS011;8679;50.842;4.322;2023-04-15T14:46:26;1.02;;;0.75;;
17127;SDS011;8679;50.842;4.322;2023-04-15T14:48:52;0.68;;;0.30;;
17127;SDS011;8679;50.842;4.322;2023-04-15T14:51:17;0.25;;;0.20;;
17127;SDS011;8679;50.842;4.322;2023-04-15T14:53:43;2.28;;;0.38;;
17127;SDS011;8679;50.842;4.322;2023-04-15T14:56:09;0.90;;;0.60;;
17127;SDS011;8679;50.842;4.322;2023-04-15T14:58:35;0.68;;;0.40;;
17127;SDS011;8679;50.842;4.322;2023-04-15T15:01:02;0.60;;;0.28;;
17127;SDS011;8679;50.842;4.322;2023-04-15T15:03:28;0.80;;;0.50;;
17127;SDS011;8679;50.842;4.322;2023-04-15T15:05:55;1.52;;;0.68;;
17127;SDS011;8679;50.842;4.322;2023-04-15T15:08:22;0.60;;;0.47;;
17127;SDS011;8679;50.842;4.322;2023-04-15T15:10:48;1.00;;;0.50;;
17127;SDS011;8679;50.842;4.322;2023-04-15T15:13:14;0.75;;;0.50;;
17127;SDS011;8679;50.842;4.322;2023-04-15T15:15:40;0.60;;;0.50;;
17127;SDS011;8679;50.842;4.322;2023-04-15T15:18:06;0.57;;;0.57;;
17127;SDS011;8679;50.842;4.322;2023-04-15T15:20:31;0.75;;;0.40;;
17127;SDS011;8679;50.842;4.322;2023-04-15T15:22:58;0.43;;;0.43;;
17127;SDS011;8679;50.842;4.322;2023-04-15T15:25:24;2.22;;;0.95;;
17127;SDS011;8679;50.842;4.322;2023-04-15T15:27:51;2.22;;;1.27;;
17127;SDS011;8679;50.842;4.322;2023-04-15T15:30:16;0.93;;;0.75;;